Terminal Aerodrome Forecast
Issued by NWS Chicago, IL

Home | Current Version | Previous Version | Text Only | Print | Product List | Glossary Off
Versions: 1 2 3 4 5 6 7 8 9 10 11 12 13 14 15 16 17 18 19 20 21 22 23 24 25 26

736
FTUS43 KLOT 241127
TAFRFD
TAF
KRFD 241127Z 2412/2512 19011KT 3SM TSRA SCT008 BKN010CB OVC015
      TEMPO 2412/2414 1SM +TSRA OVC008CB
     FM241400 20010G16KT P6SM BKN015
     FM241900 21011G18KT P6SM BKN025
     FM242100 21011G18KT P6SM BKN035
     FM250000 22008KT P6SM VCSH SCT035 BKN100 PROB30 2503/2509 3SM
      TSRA OVC025CB=

USA.gov is the U.S. government's official web portal to all federal, state and local government web resources and services.